sensor_id;sensor_type;location;lat;lon;timestamp;P1;durP1;ratioP1;P2;durP2;ratioP2
54241;SDS011;40156;51.080;17.082;2023-02-15T00:01:15;42.83;;;17.83;;
54241;SDS011;40156;51.080;17.082;2023-02-15T00:03:44;47.65;;;17.05;;
54241;SDS011;40156;51.080;17.082;2023-02-15T00:06:12;53.65;;;18.45;;
54241;SDS011;40156;51.080;17.082;2023-02-15T00:08:40;43.90;;;17.70;;
54241;SDS011;40156;51.080;17.082;2023-02-15T00:13:36;45.25;;;17.13;;
54241;SDS011;40156;51.080;17.082;2023-02-15T00:16:05;42.35;;;16.58;;
54241;SDS011;40156;51.080;17.082;2023-02-15T00:18:35;44.05;;;17.15;;
54241;SDS011;40156;51.080;17.082;2023-02-15T00:21:07;42.40;;;17.02;;
54241;SDS011;40156;51.080;17.082;2023-02-15T00:23:37;43.78;;;16.80;;
54241;SDS011;40156;51.080;17.082;2023-02-15T00:26:09;45.70;;;17.38;;
54241;SDS011;40156;51.080;17.082;2023-02-15T00:28:39;43.45;;;17.67;;
54241;SDS011;40156;51.080;17.082;2023-02-15T00:31:08;47.65;;;17.70;;
54241;SDS011;40156;51.080;17.082;2023-02-15T00:33:38;48.92;;;18.92;;
54241;SDS011;40156;51.080;17.082;2023-02-15T00:36:07;44.40;;;18.23;;
54241;SDS011;40156;51.080;17.082;2023-02-15T00:38:36;73.47;;;23.60;;
54241;SDS011;40156;51.080;17.082;2023-02-15T00:41:05;72.63;;;24.23;;
54241;SDS011;40156;51.080;17.082;2023-02-15T00:43:35;71.25;;;24.85;;
54241;SDS011;40156;51.080;17.082;2023-02-15T00:46:04;67.57;;;24.63;;
54241;SDS011;40156;51.080;17.082;2023-02-15T00:48:33;60.10;;;23.70;;
54241;SDS011;40156;51.080;17.082;2023-02-15T00:51:01;64.70;;;24.38;;
54241;SDS011;40156;51.080;17.082;2023-02-15T00:53:29;61.05;;;22.67;;
54241;SDS011;40156;51.080;17.082;2023-02-15T00:55:57;53.55;;;21.20;;
54241;SDS011;40156;51.080;17.082;2023-02-15T00:58:26;55.35;;;19.33;;
54241;SDS011;40156;51.080;17.082;2023-02-15T01:00:54;57.20;;;20.73;;
54241;SDS011;40156;51.080;17.082;2023-02-15T01:03:22;54.35;;;23.10;;
54241;SDS011;40156;51.080;17.082;2023-02-15T01:05:53;55.10;;;21.10;;
54241;SDS011;40156;51.080;17.082;2023-02-15T01:08:21;64.57;;;24.02;;
54241;SDS011;40156;51.080;17.082;2023-02-15T01:10:49;63.90;;;25.23;;
54241;SDS011;40156;51.080;17.082;2023-02-15T01:13:26;63.63;;;23.13;;
54241;SDS011;40156;51.080;17.082;2023-02-15T01:15:54;55.95;;;21.65;;
54241;SDS011;40156;51.080;17.082;2023-02-15T01:21:18;52.67;;;20.75;;
54241;SDS011;40156;51.080;17.082;2023-02-15T01:23:49;49.28;;;19.92;;
54241;SDS011;40156;51.080;17.082;2023-02-15T01:26:17;51.45;;;21.08;;
54241;SDS011;40156;51.080;17.082;2023-02-15T01:28:45;54.53;;;20.83;;
54241;SDS011;40156;51.080;17.082;2023-02-15T01:31:14;55.95;;;21.55;;
54241;SDS011;40156;51.080;17.082;2023-02-15T01:33:44;52.78;;;21.73;;
54241;SDS011;40156;51.080;17.082;2023-02-15T01:36:14;48.90;;;20.38;;
54241;SDS011;40156;51.080;17.082;2023-02-15T01:41:48;67.00;;;25.33;;
54241;SDS011;40156;51.080;17.082;2023-02-15T01:47:34;58.25;;;23.92;;
54241;SDS011;40156;51.080;17.082;2023-02-15T01:50:10;67.30;;;24.08;;
54241;SDS011;40156;51.080;17.082;2023-02-15T01:52:44;60.88;;;23.25;;
54241;SDS011;40156;51.080;17.082;2023-02-15T01:55:27;64.78;;;22.00;;
54241;SDS011;40156;51.080;17.082;2023-02-15T01:57:59;60.10;;;22.90;;
54241;SDS011;40156;51.080;17.082;2023-02-15T02:00:28;57.88;;;21.85;;
54241;SDS011;40156;51.080;17.082;2023-02-15T02:02:57;56.92;;;22.73;;
54241;SDS011;40156;51.080;17.082;2023-02-15T02:05:26;59.90;;;23.38;;
54241;SDS011;40156;51.080;17.082;2023-02-15T02:07:54;67.80;;;24.88;;
54241;SDS011;40156;51.080;17.082;2023-02-15T02:10:26;75.47;;;27.40;;
54241;SDS011;40156;51.080;17.082;2023-02-15T02:12:56;80.65;;;29.00;;
54241;SDS011;40156;51.080;17.082;2023-02-15T02:20:55;83.80;;;26.75;;
54241;SDS011;40156;51.080;17.082;2023-02-15T02:23:38;70.38;;;24.60;;
54241;SDS011;40156;51.080;17.082;2023-02-15T02:27:00;60.30;;;24.08;;
54241;SDS011;40156;51.080;17.082;2023-02-15T02:32:20;64.78;;;23.10;;
54241;SDS011;40156;51.080;17.082;2023-02-15T02:49:40;68.80;;;24.67;;
54241;SDS011;40156;51.080;17.082;2023-02-15T02:55:00;70.43;;;25.60;;
54241;SDS011;40156;51.080;17.082;2023-02-15T03:01:13;68.05;;;24.67;;
54241;SDS011;40156;51.080;17.082;2023-02-15T03:03:44;75.72;;;26.17;;
54241;SDS011;40156;51.080;17.082;2023-02-15T03:06:19;76.07;;;26.35;;
54241;SDS011;40156;51.080;17.082;2023-02-15T03:09:06;79.00;;;26.70;;
54241;SDS011;40156;51.080;17.082;2023-02-15T03:11:38;72.15;;;26.45;;
54241;SDS011;40156;51.080;17.082;2023-02-15T03:14:07;71.80;;;25.83;;
54241;SDS011;40156;51.080;17.082;2023-02-15T03:16:35;66.60;;;26.77;;
54241;SDS011;40156;51.080;17.082;2023-02-15T03:19:08;68.20;;;26.90;;
54241;SDS011;40156;51.080;17.082;2023-02-15T03:24:17;65.28;;;26.45;;
54241;SDS011;40156;51.080;17.082;2023-02-15T03:26:49;72.15;;;27.05;;
54241;SDS011;40156;51.080;17.082;2023-02-15T03:29:20;57.08;;;25.70;;
54241;SDS011;40156;51.080;17.082;2023-02-15T03:31:54;65.30;;;25.52;;
54241;SDS011;40156;51.080;17.082;2023-02-15T03:34:26;71.93;;;26.70;;
54241;SDS011;40156;51.080;17.082;2023-02-15T03:39:34;59.25;;;24.10;;
54241;SDS011;40156;51.080;17.082;2023-02-15T03:44:33;67.00;;;24.83;;
54241;SDS011;40156;51.080;17.082;2023-02-15T03:47:11;71.22;;;25.95;;
54241;SDS011;40156;51.080;17.082;2023-02-15T03:52:15;70.25;;;27.35;;
54241;SDS011;40156;51.080;17.082;2023-02-15T03:54:45;66.43;;;25.65;;
54241;SDS011;40156;51.080;17.082;2023-02-15T03:57:14;69.80;;;27.85;;
54241;SDS011;40156;51.080;17.082;2023-02-15T03:59:47;63.53;;;26.58;;
54241;SDS011;40156;51.080;17.082;2023-02-15T04:02:19;74.57;;;27.33;;
54241;SDS011;40156;51.080;17.082;2023-02-15T04:04:51;66.18;;;25.83;;
54241;SDS011;40156;51.080;17.082;2023-02-15T04:07:20;71.93;;;27.15;;
54241;SDS011;40156;51.080;17.082;2023-02-15T04:09:48;72.60;;;26.40;;
54241;SDS011;40156;51.080;17.082;2023-02-15T04:12:16;67.78;;;27.05;;
54241;SDS011;40156;51.080;17.082;2023-02-15T04:14:44;60.90;;;26.38;;
54241;SDS011;40156;51.080;17.082;2023-02-15T04:17:13;72.93;;;27.60;;
54241;SDS011;40156;51.080;17.082;2023-02-15T04:19:41;70.43;;;27.00;;
54241;SDS011;40156;51.080;17.082;2023-02-15T04:22:09;72.22;;;28.23;;
54241;SDS011;40156;51.080;17.082;2023-02-15T04:24:37;77.13;;;26.88;;
54241;SDS011;40156;51.080;17.082;2023-02-15T04:27:05;75.82;;;26.98;;
54241;SDS011;40156;51.080;17.082;2023-02-15T04:29:33;70.45;;;27.95;;
54241;SDS011;40156;51.080;17.082;2023-02-15T04:32:02;68.90;;;26.30;;
54241;SDS011;40156;51.080;17.082;2023-02-15T04:34:30;63.75;;;25.05;;
54241;SDS011;40156;51.080;17.082;2023-02-15T04:36:58;68.22;;;27.05;;
54241;SDS011;40156;51.080;17.082;2023-02-15T04:39:26;72.20;;;27.15;;
54241;SDS011;40156;51.080;17.082;2023-02-15T04:41:54;76.03;;;26.55;;
54241;SDS011;40156;51.080;17.082;2023-02-15T04:44:23;73.53;;;26.80;;
54241;SDS011;40156;51.080;17.082;2023-02-15T04:46:50;72.43;;;25.25;;
54241;SDS011;40156;51.080;17.082;2023-02-15T04:49:19;66.05;;;26.02;;
54241;SDS011;40156;51.080;17.082;2023-02-15T04:51:47;65.88;;;25.13;;
54241;SDS011;40156;51.080;17.082;2023-02-15T04:54:15;66.28;;;26.35;;
54241;SDS011;40156;51.080;17.082;2023-02-15T04:56:43;63.42;;;23.73;;
54241;SDS011;40156;51.080;17.082;2023-02-15T04:59:12;66.75;;;25.10;;
54241;SDS011;40156;51.080;17.082;2023-02-15T05:01:40;63.13;;;23.85;;
54241;SDS011;40156;51.080;17.082;2023-02-15T05:04:09;56.13;;;23.00;;
54241;SDS011;40156;51.080;17.082;2023-02-15T05:06:37;58.22;;;22.02;;
54241;SDS011;40156;51.080;17.082;2023-02-15T05:09:05;62.85;;;24.67;;
54241;SDS011;40156;51.080;17.082;2023-02-15T05:11:33;60.90;;;22.90;;
54241;SDS011;40156;51.080;17.082;2023-02-15T05:14:01;55.50;;;22.92;;
54241;SDS011;40156;51.080;17.082;2023-02-15T05:16:29;59.83;;;23.17;;
54241;SDS011;40156;51.080;17.082;2023-02-15T05:18:57;63.63;;;24.05;;
54241;SDS011;40156;51.080;17.082;2023-02-15T05:21:25;54.75;;;23.10;;
54241;SDS011;40156;51.080;17.082;2023-02-15T05:23:54;62.33;;;22.98;;
54241;SDS011;40156;51.080;17.082;2023-02-15T05:26:22;57.53;;;21.63;;
54241;SDS011;40156;51.080;17.082;2023-02-15T05:28:52;64.63;;;23.13;;
54241;SDS011;40156;51.080;17.082;2023-02-15T05:31:20;63.95;;;24.67;;
54241;SDS011;40156;51.080;17.082;2023-02-15T05:33:48;62.92;;;23.55;;
54241;SDS011;40156;51.080;17.082;2023-02-15T05:36:16;60.88;;;23.08;;
54241;SDS011;40156;51.080;17.082;2023-02-15T05:38:44;61.88;;;24.08;;
54241;SDS011;40156;51.080;17.082;2023-02-15T05:41:12;50.13;;;20.95;;
54241;SDS011;40156;51.080;17.082;2023-02-15T05:43:41;60.60;;;23.02;;
54241;SDS011;40156;51.080;17.082;2023-02-15T05:46:09;63.30;;;23.50;;
54241;SDS011;40156;51.080;17.082;2023-02-15T05:48:38;64.53;;;25.45;;
54241;SDS011;40156;51.080;17.082;2023-02-15T05:51:10;63.15;;;23.55;;
54241;SDS011;40156;51.080;17.082;2023-02-15T05:53:40;58.53;;;22.38;;
54241;SDS011;40156;51.080;17.082;2023-02-15T05:56:09;61.28;;;23.05;;
54241;SDS011;40156;51.080;17.082;2023-02-15T05:58:38;62.78;;;23.52;;
54241;SDS011;40156;51.080;17.082;2023-02-15T06:01:14;56.50;;;23.10;;
54241;SDS011;40156;51.080;17.082;2023-02-15T06:03:45;65.18;;;24.10;;
54241;SDS011;40156;51.080;17.082;2023-02-15T06:06:13;61.08;;;23.50;;
54241;SDS011;40156;51.080;17.082;2023-02-15T06:08:41;63.95;;;23.30;;
54241;SDS011;40156;51.080;17.082;2023-02-15T06:11:10;72.45;;;25.60;;
54241;SDS011;40156;51.080;17.082;2023-02-15T06:13:38;66.18;;;25.40;;
54241;SDS011;40156;51.080;17.082;2023-02-15T06:16:06;71.95;;;24.70;;
54241;SDS011;40156;51.080;17.082;2023-02-15T06:18:35;66.93;;;24.35;;
54241;SDS011;40156;51.080;17.082;2023-02-15T06:21:02;66.60;;;24.50;;
54241;SDS011;40156;51.080;17.082;2023-02-15T06:23:31;71.43;;;25.65;;
54241;SDS011;40156;51.080;17.082;2023-02-15T06:25:59;69.03;;;25.30;;
54241;SDS011;40156;51.080;17.082;2023-02-15T06:28:28;60.20;;;24.23;;
54241;SDS011;40156;51.080;17.082;2023-02-15T06:31:05;57.42;;;22.48;;
54241;SDS011;40156;51.080;17.082;2023-02-15T06:33:33;52.15;;;21.35;;
54241;SDS011;40156;51.080;17.082;2023-02-15T06:39:53;46.10;;;18.25;;
54241;SDS011;40156;51.080;17.082;2023-02-15T06:42:24;46.88;;;18.27;;
54241;SDS011;40156;51.080;17.082;2023-02-15T06:44:52;34.28;;;16.77;;
54241;SDS011;40156;51.080;17.082;2023-02-15T06:47:21;41.10;;;17.15;;
54241;SDS011;40156;51.080;17.082;2023-02-15T06:53:30;42.17;;;15.50;;
54241;SDS011;40156;51.080;17.082;2023-02-15T07:00:16;35.05;;;14.90;;
54241;SDS011;40156;51.080;17.082;2023-02-15T07:09:20;36.63;;;18.00;;
54241;SDS011;40156;51.080;17.082;2023-02-15T07:11:49;48.03;;;22.30;;
54241;SDS011;40156;51.080;17.082;2023-02-15T07:14:18;40.97;;;19.30;;
54241;SDS011;40156;51.080;17.082;2023-02-15T07:16:46;42.08;;;22.23;;
54241;SDS011;40156;51.080;17.082;2023-02-15T07:19:14;34.03;;;16.23;;
54241;SDS011;40156;51.080;17.082;2023-02-15T07:21:42;31.83;;;15.90;;
54241;SDS011;40156;51.080;17.082;2023-02-15T07:31:44;29.27;;;14.43;;
54241;SDS011;40156;51.080;17.082;2023-02-15T07:34:12;31.10;;;15.85;;
54241;SDS011;40156;51.080;17.082;2023-02-15T07:36:41;34.53;;;15.35;;
54241;SDS011;40156;51.080;17.082;2023-02-15T07:39:10;36.17;;;16.13;;
54241;SDS011;40156;51.080;17.082;2023-02-15T07:41:38;32.53;;;15.40;;
54241;SDS011;40156;51.080;17.082;2023-02-15T07:46:45;31.27;;;15.52;;
54241;SDS011;40156;51.080;17.082;2023-02-15T07:49:13;35.88;;;16.40;;
54241;SDS011;40156;51.080;17.082;2023-02-15T07:51:41;33.15;;;15.20;;
54241;SDS011;40156;51.080;17.082;2023-02-15T07:54:09;29.38;;;15.52;;
54241;SDS011;40156;51.080;17.082;2023-02-15T07:56:37;33.67;;;15.93;;
54241;SDS011;40156;51.080;17.082;2023-02-15T07:59:05;34.67;;;14.85;;
54241;SDS011;40156;51.080;17.082;2023-02-15T08:01:34;29.33;;;14.23;;
54241;SDS011;40156;51.080;17.082;2023-02-15T08:04:04;30.80;;;15.00;;
54241;SDS011;40156;51.080;17.082;2023-02-15T08:06:35;29.52;;;14.38;;
54241;SDS011;40156;51.080;17.082;2023-02-15T08:09:07;31.35;;;15.05;;
54241;SDS011;40156;51.080;17.082;2023-02-15T08:11:36;30.95;;;13.23;;
54241;SDS011;40156;51.080;17.082;2023-02-15T08:19:23;30.08;;;13.95;;
54241;SDS011;40156;51.080;17.082;2023-02-15T08:21:53;29.02;;;14.40;;
54241;SDS011;40156;51.080;17.082;2023-02-15T08:24:22;27.98;;;13.80;;
54241;SDS011;40156;51.080;17.082;2023-02-15T08:26:52;28.92;;;14.77;;
54241;SDS011;40156;51.080;17.082;2023-02-15T08:29:22;27.50;;;13.43;;
54241;SDS011;40156;51.080;17.082;2023-02-15T08:31:52;25.55;;;13.10;;
54241;SDS011;40156;51.080;17.082;2023-02-15T08:34:22;29.13;;;12.98;;
54241;SDS011;40156;51.080;17.082;2023-02-15T08:36:50;28.75;;;13.00;;
54241;SDS011;40156;51.080;17.082;2023-02-15T08:39:19;26.80;;;13.80;;
54241;SDS011;40156;51.080;17.082;2023-02-15T08:41:47;28.48;;;13.60;;
54241;SDS011;40156;51.080;17.082;2023-02-15T08:44:16;24.85;;;11.93;;
54241;SDS011;40156;51.080;17.082;2023-02-15T08:46:47;31.35;;;12.82;;
54241;SDS011;40156;51.080;17.082;2023-02-15T08:49:17;30.42;;;13.70;;
54241;SDS011;40156;51.080;17.082;2023-02-15T08:51:47;27.17;;;13.20;;
54241;SDS011;40156;51.080;17.082;2023-02-15T08:54:17;28.25;;;12.80;;
54241;SDS011;40156;51.080;17.082;2023-02-15T08:56:47;27.73;;;13.35;;
54241;SDS011;40156;51.080;17.082;2023-02-15T08:59:20;28.15;;;13.55;;
54241;SDS011;40156;51.080;17.082;2023-02-15T09:01:50;29.83;;;12.30;;
54241;SDS011;40156;51.080;17.082;2023-02-15T09:04:19;30.02;;;13.95;;
54241;SDS011;40156;51.080;17.082;2023-02-15T09:06:49;31.20;;;13.45;;
54241;SDS011;40156;51.080;17.082;2023-02-15T09:09:18;28.40;;;13.65;;
54241;SDS011;40156;51.080;17.082;2023-02-15T09:11:47;29.40;;;13.02;;
54241;SDS011;40156;51.080;17.082;2023-02-15T09:14:22;29.80;;;13.75;;
54241;SDS011;40156;51.080;17.082;2023-02-15T09:16:51;27.52;;;13.73;;
54241;SDS011;40156;51.080;17.082;2023-02-15T09:19:21;26.75;;;12.88;;
54241;SDS011;40156;51.080;17.082;2023-02-15T09:21:50;27.80;;;14.75;;
54241;SDS011;40156;51.080;17.082;2023-02-15T09:24:18;26.45;;;13.63;;
54241;SDS011;40156;51.080;17.082;2023-02-15T09:26:47;26.33;;;13.18;;
54241;SDS011;40156;51.080;17.082;2023-02-15T09:29:17;27.35;;;12.68;;
54241;SDS011;40156;51.080;17.082;2023-02-15T09:31:47;30.33;;;13.18;;
54241;SDS011;40156;51.080;17.082;2023-02-15T09:34:19;26.90;;;13.32;;
54241;SDS011;40156;51.080;17.082;2023-02-15T09:36:49;27.50;;;13.15;;
54241;SDS011;40156;51.080;17.082;2023-02-15T09:39:22;28.08;;;14.40;;
54241;SDS011;40156;51.080;17.082;2023-02-15T09:44:42;39.90;;;19.50;;
54241;SDS011;40156;51.080;17.082;2023-02-15T09:50:10;25.25;;;13.95;;
54241;SDS011;40156;51.080;17.082;2023-02-15T10:04:03;27.45;;;13.13;;
54241;SDS011;40156;51.080;17.082;2023-02-15T10:09:08;28.58;;;14.13;;
54241;SDS011;40156;51.080;17.082;2023-02-15T10:35:37;22.63;;;12.60;;
54241;SDS011;40156;51.080;17.082;2023-02-15T10:38:10;22.15;;;10.63;;
54241;SDS011;40156;51.080;17.082;2023-02-15T10:50:52;22.98;;;11.77;;
54241;SDS011;40156;51.080;17.082;2023-02-15T10:56:19;23.98;;;11.93;;
54241;SDS011;40156;51.080;17.082;2023-02-15T11:06:19;24.42;;;12.90;;
54241;SDS011;40156;51.080;17.082;2023-02-15T11:08:50;28.13;;;12.25;;
54241;SDS011;40156;51.080;17.082;2023-02-15T11:11:35;29.20;;;12.80;;
54241;SDS011;40156;51.080;17.082;2023-02-15T11:14:50;28.10;;;12.80;;
54241;SDS011;40156;51.080;17.082;2023-02-15T11:16:52;31.13;;;14.40;;
54241;SDS011;40156;51.080;17.082;2023-02-15T11:19:23;33.80;;;14.43;;
54241;SDS011;40156;51.080;17.082;2023-02-15T11:21:53;27.58;;;12.23;;
54241;SDS011;40156;51.080;17.082;2023-02-15T11:24:24;30.30;;;13.90;;
54241;SDS011;40156;51.080;17.082;2023-02-15T11:27:03;29.70;;;12.73;;
54241;SDS011;40156;51.080;17.082;2023-02-15T11:29:33;25.42;;;12.38;;
54241;SDS011;40156;51.080;17.082;2023-02-15T11:32:03;27.00;;;12.25;;
54241;SDS011;40156;51.080;17.082;2023-02-15T11:35:42;31.02;;;14.20;;
54241;SDS011;40156;51.080;17.082;2023-02-15T11:37:37;27.70;;;13.93;;
54241;SDS011;40156;51.080;17.082;2023-02-15T11:40:25;30.40;;;14.25;;
54241;SDS011;40156;51.080;17.082;2023-02-15T11:42:55;33.15;;;13.95;;
54241;SDS011;40156;51.080;17.082;2023-02-15T11:45:29;31.65;;;14.48;;
54241;SDS011;40156;51.080;17.082;2023-02-15T11:47:58;28.45;;;13.73;;
54241;SDS011;40156;51.080;17.082;2023-02-15T11:50:27;30.73;;;14.55;;
54241;SDS011;40156;51.080;17.082;2023-02-15T11:52:59;32.80;;;14.60;;
54241;SDS011;40156;51.080;17.082;2023-02-15T11:55:27;31.17;;;15.00;;
54241;SDS011;40156;51.080;17.082;2023-02-15T12:00:45;28.73;;;14.48;;
54241;SDS011;40156;51.080;17.082;2023-02-15T12:03:26;32.97;;;15.98;;
54241;SDS011;40156;51.080;17.082;2023-02-15T12:06:00;31.20;;;14.33;;
54241;SDS011;40156;51.080;17.082;2023-02-15T12:08:38;31.45;;;15.13;;
54241;SDS011;40156;51.080;17.082;2023-02-15T12:11:17;31.10;;;15.18;;
54241;SDS011;40156;51.080;17.082;2023-02-15T12:13:54;27.20;;;13.02;;
54241;SDS011;40156;51.080;17.082;2023-02-15T12:16:22;31.60;;;13.93;;
54241;SDS011;40156;51.080;17.082;2023-02-15T12:18:49;32.30;;;15.18;;
54241;SDS011;40156;51.080;17.082;2023-02-15T12:21:26;30.73;;;13.93;;
54241;SDS011;40156;51.080;17.082;2023-02-15T12:24:00;37.25;;;13.88;;
54241;SDS011;40156;51.080;17.082;2023-02-15T12:26:30;31.30;;;14.70;;
54241;SDS011;40156;51.080;17.082;2023-02-15T12:29:00;29.63;;;13.77;;
54241;SDS011;40156;51.080;17.082;2023-02-15T12:31:33;27.02;;;13.18;;
54241;SDS011;40156;51.080;17.082;2023-02-15T12:34:03;35.10;;;13.95;;
54241;SDS011;40156;51.080;17.082;2023-02-15T12:36:40;30.30;;;13.80;;
54241;SDS011;40156;51.080;17.082;2023-02-15T12:41:46;28.00;;;13.45;;
54241;SDS011;40156;51.080;17.082;2023-02-15T12:47:16;30.40;;;13.40;;
54241;SDS011;40156;51.080;17.082;2023-02-15T12:49:33;29.80;;;12.63;;
54241;SDS011;40156;51.080;17.082;2023-02-15T12:54:52;26.58;;;12.38;;
54241;SDS011;40156;51.080;17.082;2023-02-15T12:57:32;29.77;;;13.35;;
54241;SDS011;40156;51.080;17.082;2023-02-15T13:00:02;24.17;;;12.02;;
54241;SDS011;40156;51.080;17.082;2023-02-15T13:05:45;29.67;;;12.10;;
54241;SDS011;40156;51.080;17.082;2023-02-15T13:07:53;33.13;;;13.13;;
54241;SDS011;40156;51.080;17.082;2023-02-15T13:10:23;28.88;;;13.48;;
54241;SDS011;40156;51.080;17.082;2023-02-15T13:12:51;31.52;;;13.38;;
54241;SDS011;40156;51.080;17.082;2023-02-15T13:15:23;26.40;;;11.93;;
54241;SDS011;40156;51.080;17.082;2023-02-15T13:17:52;27.92;;;13.07;;
54241;SDS011;40156;51.080;17.082;2023-02-15T13:20:20;30.85;;;13.45;;
54241;SDS011;40156;51.080;17.082;2023-02-15T13:22:48;29.48;;;11.77;;
54241;SDS011;40156;51.080;17.082;2023-02-15T13:25:28;29.50;;;13.05;;
54241;SDS011;40156;51.080;17.082;2023-02-15T13:28:03;27.95;;;12.73;;
54241;SDS011;40156;51.080;17.082;2023-02-15T13:30:32;32.15;;;12.70;;
54241;SDS011;40156;51.080;17.082;2023-02-15T13:33:06;28.73;;;13.30;;
54241;SDS011;40156;51.080;17.082;2023-02-15T13:35:36;29.27;;;11.85;;
54241;SDS011;40156;51.080;17.082;2023-02-15T13:38:15;29.05;;;13.30;;
54241;SDS011;40156;51.080;17.082;2023-02-15T13:41:10;30.70;;;14.25;;
54241;SDS011;40156;51.080;17.082;2023-02-15T13:44:01;29.30;;;13.10;;
54241;SDS011;40156;51.080;17.082;2023-02-15T13:54:33;29.67;;;12.75;;
54241;SDS011;40156;51.080;17.082;2023-02-15T14:17:59;31.67;;;12.73;;
54241;SDS011;40156;51.080;17.082;2023-02-15T14:20:40;27.95;;;12.48;;
54241;SDS011;40156;51.080;17.082;2023-02-15T14:25:49;27.63;;;12.60;;
54241;SDS011;40156;51.080;17.082;2023-02-15T14:28:25;29.20;;;12.57;;
54241;SDS011;40156;51.080;17.082;2023-02-15T14:30:55;37.80;;;14.55;;
54241;SDS011;40156;51.080;17.082;2023-02-15T14:33:31;30.35;;;12.80;;
54241;SDS011;40156;51.080;17.082;2023-02-15T14:36:02;28.50;;;11.32;;
54241;SDS011;40156;51.080;17.082;2023-02-15T14:44:08;30.55;;;13.20;;
54241;SDS011;40156;51.080;17.082;2023-02-15T14:46:46;30.80;;;13.50;;
54241;SDS011;40156;51.080;17.082;2023-02-15T14:49:27;30.95;;;13.23;;
54241;SDS011;40156;51.080;17.082;2023-02-15T14:51:59;24.67;;;12.25;;
54241;SDS011;40156;51.080;17.082;2023-02-15T15:04:39;29.88;;;11.90;;
54241;SDS011;40156;51.080;17.082;2023-02-15T15:18:49;28.67;;;12.75;;
54241;SDS011;40156;51.080;17.082;2023-02-15T15:24:05;37.63;;;13.70;;
54241;SDS011;40156;51.080;17.082;2023-02-15T15:26:33;32.15;;;13.70;;
54241;SDS011;40156;51.080;17.082;2023-02-15T15:29:01;31.98;;;14.10;;
54241;SDS011;40156;51.080;17.082;2023-02-15T15:43:00;32.67;;;13.35;;
54241;SDS011;40156;51.080;17.082;2023-02-15T15:51:02;31.00;;;12.95;;
54241;SDS011;40156;51.080;17.082;2023-02-15T15:53:32;30.85;;;13.07;;
54241;SDS011;40156;51.080;17.082;2023-02-15T15:56:04;30.75;;;12.88;;
54241;SDS011;40156;51.080;17.082;2023-02-15T15:58:37;39.08;;;14.73;;
54241;SDS011;40156;51.080;17.082;2023-02-15T16:01:08;41.05;;;16.83;;
54241;SDS011;40156;51.080;17.082;2023-02-15T16:03:36;45.13;;;17.75;;
54241;SDS011;40156;51.080;17.082;2023-02-15T16:06:04;40.58;;;16.75;;
54241;SDS011;40156;51.080;17.082;2023-02-15T16:08:36;37.45;;;14.60;;
54241;SDS011;40156;51.080;17.082;2023-02-15T16:11:13;45.90;;;17.30;;
54241;SDS011;40156;51.080;17.082;2023-02-15T16:13:44;42.30;;;18.23;;
54241;SDS011;40156;51.080;17.082;2023-02-15T16:16:12;75.85;;;23.25;;
54241;SDS011;40156;51.080;17.082;2023-02-15T16:18:40;78.35;;;25.90;;
54241;SDS011;40156;51.080;17.082;2023-02-15T16:21:12;92.40;;;26.00;;
54241;SDS011;40156;51.080;17.082;2023-02-15T16:26:36;79.68;;;23.83;;
54241;SDS011;40156;51.080;17.082;2023-02-15T16:29:16;49.42;;;16.42;;
54241;SDS011;40156;51.080;17.082;2023-02-15T16:37:25;33.92;;;14.88;;
54241;SDS011;40156;51.080;17.082;2023-02-15T16:39:54;46.80;;;18.10;;
54241;SDS011;40156;51.080;17.082;2023-02-15T16:42:22;81.97;;;27.90;;
54241;SDS011;40156;51.080;17.082;2023-02-15T16:45:13;118.80;;;39.08;;
54241;SDS011;40156;51.080;17.082;2023-02-15T16:47:41;80.90;;;27.83;;
54241;SDS011;40156;51.080;17.082;2023-02-15T16:50:16;71.57;;;26.85;;
54241;SDS011;40156;51.080;17.082;2023-02-15T16:52:44;74.80;;;26.30;;
54241;SDS011;40156;51.080;17.082;2023-02-15T16:55:21;49.47;;;19.98;;
54241;SDS011;40156;51.080;17.082;2023-02-15T16:57:50;50.10;;;20.15;;
54241;SDS011;40156;51.080;17.082;2023-02-15T17:00:19;41.47;;;15.75;;
54241;SDS011;40156;51.080;17.082;2023-02-15T17:06:00;41.25;;;15.65;;
54241;SDS011;40156;51.080;17.082;2023-02-15T17:11:10;49.88;;;17.38;;
54241;SDS011;40156;51.080;17.082;2023-02-15T17:13:39;62.33;;;21.40;;
54241;SDS011;40156;51.080;17.082;2023-02-15T17:16:15;53.58;;;22.55;;
54241;SDS011;40156;51.080;17.082;2023-02-15T17:18:47;59.15;;;21.98;;
54241;SDS011;40156;51.080;17.082;2023-02-15T17:21:19;57.85;;;22.48;;
54241;SDS011;40156;51.080;17.082;2023-02-15T17:23:48;63.72;;;24.15;;
54241;SDS011;40156;51.080;17.082;2023-02-15T17:26:23;72.05;;;27.08;;
54241;SDS011;40156;51.080;17.082;2023-02-15T17:31:20;101.28;;;38.25;;
54241;SDS011;40156;51.080;17.082;2023-02-15T17:33:56;74.47;;;31.75;;
54241;SDS011;40156;51.080;17.082;2023-02-15T17:36:25;92.00;;;33.97;;
54241;SDS011;40156;51.080;17.082;2023-02-15T17:41:25;117.85;;;41.17;;
54241;SDS011;40156;51.080;17.082;2023-02-15T17:43:52;80.32;;;30.80;;
54241;SDS011;40156;51.080;17.082;2023-02-15T17:46:20;74.18;;;29.98;;
54241;SDS011;40156;51.080;17.082;2023-02-15T17:48:52;76.18;;;29.45;;
54241;SDS011;40156;51.080;17.082;2023-02-15T17:51:20;74.22;;;28.88;;
54241;SDS011;40156;51.080;17.082;2023-02-15T17:53:48;70.55;;;28.10;;
54241;SDS011;40156;51.080;17.082;2023-02-15T17:56:17;74.68;;;27.15;;
54241;SDS011;40156;51.080;17.082;2023-02-15T17:58:44;59.35;;;22.00;;
54241;SDS011;40156;51.080;17.082;2023-02-15T18:01:14;59.10;;;20.98;;
54241;SDS011;40156;51.080;17.082;2023-02-15T18:03:45;81.37;;;24.63;;
54241;SDS011;40156;51.080;17.082;2023-02-15T18:06:14;74.53;;;26.27;;
54241;SDS011;40156;51.080;17.082;2023-02-15T18:08:41;69.15;;;27.52;;
54241;SDS011;40156;51.080;17.082;2023-02-15T18:11:09;80.88;;;30.23;;
54241;SDS011;40156;51.080;17.082;2023-02-15T18:13:37;85.03;;;30.75;;
54241;SDS011;40156;51.080;17.082;2023-02-15T18:16:07;79.13;;;29.52;;
54241;SDS011;40156;51.080;17.082;2023-02-15T18:18:36;73.85;;;27.48;;
54241;SDS011;40156;51.080;17.082;2023-02-15T18:21:04;88.18;;;31.27;;
54241;SDS011;40156;51.080;17.082;2023-02-15T18:23:33;88.47;;;30.92;;
54241;SDS011;40156;51.080;17.082;2023-02-15T18:26:01;85.93;;;33.13;;
54241;SDS011;40156;51.080;17.082;2023-02-15T18:28:28;96.30;;;35.05;;
54241;SDS011;40156;51.080;17.082;2023-02-15T18:30:57;111.15;;;36.10;;
54241;SDS011;40156;51.080;17.082;2023-02-15T18:33:28;102.45;;;34.65;;
54241;SDS011;40156;51.080;17.082;2023-02-15T18:35:59;99.32;;;33.97;;
54241;SDS011;40156;51.080;17.082;2023-02-15T18:38:27;90.50;;;31.10;;
54241;SDS011;40156;51.080;17.082;2023-02-15T18:40:55;88.70;;;30.98;;
54241;SDS011;40156;51.080;17.082;2023-02-15T18:43:22;97.03;;;31.60;;
54241;SDS011;40156;51.080;17.082;2023-02-15T18:45:50;77.70;;;29.30;;
54241;SDS011;40156;51.080;17.082;2023-02-15T18:48:18;94.03;;;31.30;;
54241;SDS011;40156;51.080;17.082;2023-02-15T18:50:45;91.97;;;31.15;;